sensor_id;sensor_type;location;lat;lon;timestamp;temperature;humidity
31677;DHT22;18385;51.572;6.578;2023-02-20T00:01:01;8.80;72.60
31677;DHT22;18385;51.572;6.578;2023-02-20T00:03:26;8.80;72.50
31677;DHT22;18385;51.572;6.578;2023-02-20T00:05:52;8.90;72.60
31677;DHT22;18385;51.572;6.578;2023-02-20T00:08:18;8.90;72.50
31677;DHT22;18385;51.572;6.578;2023-02-20T00:10:43;8.90;72.50
31677;DHT22;18385;51.572;6.578;2023-02-20T00:13:09;8.90;72.40
31677;DHT22;18385;51.572;6.578;2023-02-20T00:15:35;8.90;72.40
31677;DHT22;18385;51.572;6.578;2023-02-20T00:18:00;8.90;72.50
31677;DHT22;18385;51.572;6.578;2023-02-20T00:20:26;9.00;72.50
31677;DHT22;18385;51.572;6.578;2023-02-20T00:22:52;9.00;72.50
31677;DHT22;18385;51.572;6.578;2023-02-20T00:25:19;9.10;72.50
31677;DHT22;18385;51.572;6.578;2023-02-20T00:27:45;9.10;72.50
31677;DHT22;18385;51.572;6.578;2023-02-20T00:30:22;9.10;72.50
31677;DHT22;18385;51.572;6.578;2023-02-20T00:32:50;9.10;72.40
31677;DHT22;18385;51.572;6.578;2023-02-20T00:35:17;9.10;72.40
31677;DHT22;18385;51.572;6.578;2023-02-20T00:37:44;9.10;72.40
31677;DHT22;18385;51.572;6.578;2023-02-20T00:40:11;9.20;72.40
31677;DHT22;18385;51.572;6.578;2023-02-20T00:42:37;9.20;72.40
31677;DHT22;18385;51.572;6.578;2023-02-20T00:45:04;9.20;72.40
31677;DHT22;18385;51.572;6.578;2023-02-20T00:47:30;9.30;72.50
31677;DHT22;18385;51.572;6.578;2023-02-20T00:49:56;9.30;72.40
31677;DHT22;18385;51.572;6.578;2023-02-20T00:52:22;9.30;72.30
31677;DHT22;18385;51.572;6.578;2023-02-20T00:54:48;9.30;72.20
31677;DHT22;18385;51.572;6.578;2023-02-20T00:57:14;9.30;72.20
31677;DHT22;18385;51.572;6.578;2023-02-20T00:59:39;9.20;72.30
31677;DHT22;18385;51.572;6.578;2023-02-20T01:02:05;9.20;72.30
31677;DHT22;18385;51.572;6.578;2023-02-20T01:04:32;9.20;72.40
31677;DHT22;18385;51.572;6.578;2023-02-20T01:06:57;9.10;72.40
31677;DHT22;18385;51.572;6.578;2023-02-20T01:09:23;9.10;72.40
31677;DHT22;18385;51.572;6.578;2023-02-20T01:11:50;9.10;72.40
31677;DHT22;18385;51.572;6.578;2023-02-20T01:14:16;9.10;73.20
31677;DHT22;18385;51.572;6.578;2023-02-20T01:16:46;9.10;72.50
31677;DHT22;18385;51.572;6.578;2023-02-20T01:19:13;9.10;72.60
31677;DHT22;18385;51.572;6.578;2023-02-20T01:21:38;9.10;72.60
31677;DHT22;18385;51.572;6.578;2023-02-20T01:24:04;9.20;72.60
31677;DHT22;18385;51.572;6.578;2023-02-20T01:26:30;9.30;72.60
31677;DHT22;18385;51.572;6.578;2023-02-20T01:28:56;9.30;72.50
31677;DHT22;18385;51.572;6.578;2023-02-20T01:31:22;9.30;72.40
31677;DHT22;18385;51.572;6.578;2023-02-20T01:33:47;9.30;72.40
31677;DHT22;18385;51.572;6.578;2023-02-20T01:36:13;9.30;72.30
31677;DHT22;18385;51.572;6.578;2023-02-20T01:38:40;9.30;72.30
31677;DHT22;18385;51.572;6.578;2023-02-20T01:41:07;9.30;72.30
31677;DHT22;18385;51.572;6.578;2023-02-20T01:43:33;9.30;72.40
31677;DHT22;18385;51.572;6.578;2023-02-20T01:47:03;9.30;72.40
31677;DHT22;18385;51.572;6.578;2023-02-20T01:49:11;9.30;72.40
31677;DHT22;18385;51.572;6.578;2023-02-20T01:51:42;9.20;72.30
31677;DHT22;18385;51.572;6.578;2023-02-20T01:54:11;9.10;72.30
31677;DHT22;18385;51.572;6.578;2023-02-20T01:56:38;9.00;72.40
31677;DHT22;18385;51.572;6.578;2023-02-20T01:59:05;8.90;72.50
31677;DHT22;18385;51.572;6.578;2023-02-20T02:01:32;8.90;72.60
31677;DHT22;18385;51.572;6.578;2023-02-20T02:04:02;8.90;72.70
31677;DHT22;18385;51.572;6.578;2023-02-20T02:06:29;8.80;72.70
31677;DHT22;18385;51.572;6.578;2023-02-20T02:08:58;8.80;72.80
31677;DHT22;18385;51.572;6.578;2023-02-20T02:11:27;8.80;72.90
31677;DHT22;18385;51.572;6.578;2023-02-20T02:13:54;8.80;73.00
31677;DHT22;18385;51.572;6.578;2023-02-20T02:28:49;8.70;73.00
31677;DHT22;18385;51.572;6.578;2023-02-20T02:32:07;8.70;73.20
31677;DHT22;18385;51.572;6.578;2023-02-20T02:40:02;8.80;73.20
31677;DHT22;18385;51.572;6.578;2023-02-20T02:42:40;8.80;73.10
31677;DHT22;18385;51.572;6.578;2023-02-20T02:47:57;8.70;73.10
31677;DHT22;18385;51.572;6.578;2023-02-20T02:50:27;8.70;73.10
31677;DHT22;18385;51.572;6.578;2023-02-20T02:52:56;8.60;73.20
31677;DHT22;18385;51.572;6.578;2023-02-20T02:55:31;8.60;73.20
31677;DHT22;18385;51.572;6.578;2023-02-20T02:57:59;8.60;73.20
31677;DHT22;18385;51.572;6.578;2023-02-20T03:00:40;8.60;73.30
31677;DHT22;18385;51.572;6.578;2023-02-20T03:05:42;8.70;73.40
31677;DHT22;18385;51.572;6.578;2023-02-20T03:10:47;8.80;73.40
31677;DHT22;18385;51.572;6.578;2023-02-20T03:13:18;8.70;73.30
31677;DHT22;18385;51.572;6.578;2023-02-20T03:15:52;8.70;73.30
31677;DHT22;18385;51.572;6.578;2023-02-20T03:18:30;8.70;73.40
31677;DHT22;18385;51.572;6.578;2023-02-20T03:21:04;8.70;74.20
31677;DHT22;18385;51.572;6.578;2023-02-20T03:23:37;8.70;73.40
31677;DHT22;18385;51.572;6.578;2023-02-20T03:26:12;8.70;73.50
31677;DHT22;18385;51.572;6.578;2023-02-20T03:28:50;8.70;73.50
31677;DHT22;18385;51.572;6.578;2023-02-20T03:34:23;8.70;73.60
31677;DHT22;18385;51.572;6.578;2023-02-20T03:37:18;8.60;73.40
31677;DHT22;18385;51.572;6.578;2023-02-20T03:40:08;8.60;73.60
31677;DHT22;18385;51.572;6.578;2023-02-20T03:43:00;8.60;74.40
31677;DHT22;18385;51.572;6.578;2023-02-20T03:45:48;8.50;73.60
31677;DHT22;18385;51.572;6.578;2023-02-20T03:48:30;8.50;73.70
31677;DHT22;18385;51.572;6.578;2023-02-20T03:50:57;8.50;73.70
31677;DHT22;18385;51.572;6.578;2023-02-20T03:53:26;8.50;73.80
31677;DHT22;18385;51.572;6.578;2023-02-20T03:55:53;8.50;73.80
31677;DHT22;18385;51.572;6.578;2023-02-20T03:58:23;8.50;73.70
31677;DHT22;18385;51.572;6.578;2023-02-20T04:00:52;8.50;73.70
31677;DHT22;18385;51.572;6.578;2023-02-20T04:03:22;8.50;73.80
31677;DHT22;18385;51.572;6.578;2023-02-20T04:05:54;8.40;73.80
31677;DHT22;18385;51.572;6.578;2023-02-20T04:08:31;8.40;73.80
31677;DHT22;18385;51.572;6.578;2023-02-20T04:11:08;8.40;73.80
31677;DHT22;18385;51.572;6.578;2023-02-20T04:13:36;8.40;73.90
31677;DHT22;18385;51.572;6.578;2023-02-20T04:16:03;8.30;73.90
31677;DHT22;18385;51.572;6.578;2023-02-20T04:18:29;8.30;73.80
31677;DHT22;18385;51.572;6.578;2023-02-20T04:21:01;8.30;74.00
31677;DHT22;18385;51.572;6.578;2023-02-20T04:23:37;8.40;74.10
31677;DHT22;18385;51.572;6.578;2023-02-20T04:26:08;8.40;74.10
31677;DHT22;18385;51.572;6.578;2023-02-20T04:28:39;8.50;74.20
31677;DHT22;18385;51.572;6.578;2023-02-20T04:31:06;8.60;74.10
31677;DHT22;18385;51.572;6.578;2023-02-20T04:33:34;8.60;74.00
31677;DHT22;18385;51.572;6.578;2023-02-20T04:36:05;8.80;74.10
31677;DHT22;18385;51.572;6.578;2023-02-20T04:38:32;8.90;74.00
31677;DHT22;18385;51.572;6.578;2023-02-20T04:40:59;9.00;73.90
31677;DHT22;18385;51.572;6.578;2023-02-20T04:43:24;9.10;73.80
31677;DHT22;18385;51.572;6.578;2023-02-20T04:45:51;9.20;73.70
31677;DHT22;18385;51.572;6.578;2023-02-20T04:48:17;9.20;73.60
31677;DHT22;18385;51.572;6.578;2023-02-20T04:50:43;9.30;73.50
31677;DHT22;18385;51.572;6.578;2023-02-20T04:53:10;9.30;73.50
31677;DHT22;18385;51.572;6.578;2023-02-20T04:55:36;9.40;73.40
31677;DHT22;18385;51.572;6.578;2023-02-20T04:58:07;9.30;73.30
31677;DHT22;18385;51.572;6.578;2023-02-20T05:00:47;9.30;73.30
31677;DHT22;18385;51.572;6.578;2023-02-20T05:03:13;9.30;73.40
31677;DHT22;18385;51.572;6.578;2023-02-20T05:05:38;9.30;73.50
31677;DHT22;18385;51.572;6.578;2023-02-20T05:08:06;9.30;73.50
31677;DHT22;18385;51.572;6.578;2023-02-20T05:10:33;9.30;73.40
31677;DHT22;18385;51.572;6.578;2023-02-20T05:13:00;9.30;73.30
31677;DHT22;18385;51.572;6.578;2023-02-20T05:15:27;9.40;73.40
31677;DHT22;18385;51.572;6.578;2023-02-20T05:17:53;9.30;73.30
31677;DHT22;18385;51.572;6.578;2023-02-20T05:20:19;9.30;73.40
31677;DHT22;18385;51.572;6.578;2023-02-20T05:22:45;9.40;73.50
31677;DHT22;18385;51.572;6.578;2023-02-20T05:25:11;9.40;73.50
31677;DHT22;18385;51.572;6.578;2023-02-20T05:27:38;9.50;73.40
31677;DHT22;18385;51.572;6.578;2023-02-20T05:30:05;9.50;73.40
31677;DHT22;18385;51.572;6.578;2023-02-20T05:32:31;9.50;73.30
31677;DHT22;18385;51.572;6.578;2023-02-20T05:34:56;9.60;73.30
31677;DHT22;18385;51.572;6.578;2023-02-20T05:37:24;9.60;73.30
31677;DHT22;18385;51.572;6.578;2023-02-20T05:39:50;9.60;73.20
31677;DHT22;18385;51.572;6.578;2023-02-20T05:42:16;9.70;73.30
31677;DHT22;18385;51.572;6.578;2023-02-20T05:44:42;9.60;73.20
31677;DHT22;18385;51.572;6.578;2023-02-20T05:47:09;9.70;73.20
31677;DHT22;18385;51.572;6.578;2023-02-20T05:49:35;9.60;73.20
31677;DHT22;18385;51.572;6.578;2023-02-20T05:52:02;9.70;73.20
31677;DHT22;18385;51.572;6.578;2023-02-20T05:54:28;9.60;73.20
31677;DHT22;18385;51.572;6.578;2023-02-20T05:56:54;9.70;73.20
31677;DHT22;18385;51.572;6.578;2023-02-20T05:59:22;9.70;73.30
31677;DHT22;18385;51.572;6.578;2023-02-20T06:01:47;9.70;73.20
31677;DHT22;18385;51.572;6.578;2023-02-20T06:04:17;9.70;73.20
31677;DHT22;18385;51.572;6.578;2023-02-20T06:06:43;9.70;73.20
31677;DHT22;18385;51.572;6.578;2023-02-20T06:09:10;9.80;73.20
31677;DHT22;18385;51.572;6.578;2023-02-20T06:11:37;9.70;73.10
31677;DHT22;18385;51.572;6.578;2023-02-20T06:14:04;9.80;73.20
31677;DHT22;18385;51.572;6.578;2023-02-20T06:16:30;9.80;73.10
31677;DHT22;18385;51.572;6.578;2023-02-20T06:18:56;9.80;73.10
31677;DHT22;18385;51.572;6.578;2023-02-20T06:21:24;9.90;73.10
31677;DHT22;18385;51.572;6.578;2023-02-20T06:23:52;9.80;73.00
31677;DHT22;18385;51.572;6.578;2023-02-20T06:26:18;9.80;73.00
31677;DHT22;18385;51.572;6.578;2023-02-20T06:28:44;9.80;73.00
31677;DHT22;18385;51.572;6.578;2023-02-20T06:31:12;9.90;73.10
31677;DHT22;18385;51.572;6.578;2023-02-20T06:33:37;9.90;73.00
31677;DHT22;18385;51.572;6.578;2023-02-20T06:36:04;9.90;73.00
31677;DHT22;18385;51.572;6.578;2023-02-20T06:38:30;9.90;73.00
31677;DHT22;18385;51.572;6.578;2023-02-20T06:40:56;9.90;73.00
31677;DHT22;18385;51.572;6.578;2023-02-20T06:43:21;10.00;73.10
31677;DHT22;18385;51.572;6.578;2023-02-20T06:45:47;10.00;73.10
31677;DHT22;18385;51.572;6.578;2023-02-20T06:48:13;10.00;73.00
31677;DHT22;18385;51.572;6.578;2023-02-20T06:50:40;10.00;73.00
31677;DHT22;18385;51.572;6.578;2023-02-20T06:53:06;10.00;73.00
31677;DHT22;18385;51.572;6.578;2023-02-20T06:55:32;10.00;72.90
31677;DHT22;18385;51.572;6.578;2023-02-20T06:57:58;10.00;73.00
31677;DHT22;18385;51.572;6.578;2023-02-20T07:00:24;10.00;72.90
31677;DHT22;18385;51.572;6.578;2023-02-20T07:02:50;10.10;72.90
31677;DHT22;18385;51.572;6.578;2023-02-20T07:05:15;10.10;72.90
31677;DHT22;18385;51.572;6.578;2023-02-20T07:07:41;10.10;72.90
31677;DHT22;18385;51.572;6.578;2023-02-20T07:10:07;10.10;72.90
31677;DHT22;18385;51.572;6.578;2023-02-20T07:12:33;10.20;72.90
31677;DHT22;18385;51.572;6.578;2023-02-20T07:15:03;10.20;72.80
31677;DHT22;18385;51.572;6.578;2023-02-20T07:17:29;10.20;72.80
31677;DHT22;18385;51.572;6.578;2023-02-20T07:19:55;10.30;72.80
31677;DHT22;18385;51.572;6.578;2023-02-20T07:22:20;10.30;72.80
31677;DHT22;18385;51.572;6.578;2023-02-20T07:24:51;10.30;72.70
31677;DHT22;18385;51.572;6.578;2023-02-20T07:27:16;10.40;72.70
31677;DHT22;18385;51.572;6.578;2023-02-20T07:29:46;10.40;72.70
31677;DHT22;18385;51.572;6.578;2023-02-20T07:32:12;10.40;72.60
31677;DHT22;18385;51.572;6.578;2023-02-20T07:34:38;10.40;72.80
31677;DHT22;18385;51.572;6.578;2023-02-20T07:37:04;10.40;72.80
31677;DHT22;18385;51.572;6.578;2023-02-20T07:39:30;10.50;72.70
31677;DHT22;18385;51.572;6.578;2023-02-20T07:41:55;10.50;72.60
31677;DHT22;18385;51.572;6.578;2023-02-20T07:44:43;10.60;72.70
31677;DHT22;18385;51.572;6.578;2023-02-20T07:47:11;10.60;72.50
31677;DHT22;18385;51.572;6.578;2023-02-20T07:49:37;10.70;72.40
31677;DHT22;18385;51.572;6.578;2023-02-20T07:52:03;10.80;72.50
31677;DHT22;18385;51.572;6.578;2023-02-20T07:54:28;10.80;72.40
31677;DHT22;18385;51.572;6.578;2023-02-20T07:56:54;10.90;72.20
31677;DHT22;18385;51.572;6.578;2023-02-20T07:59:21;11.00;72.20
31677;DHT22;18385;51.572;6.578;2023-02-20T08:01:46;11.00;72.10
31677;DHT22;18385;51.572;6.578;2023-02-20T08:04:12;11.10;72.10
31677;DHT22;18385;51.572;6.578;2023-02-20T08:06:38;11.10;71.80
31677;DHT22;18385;51.572;6.578;2023-02-20T08:09:03;11.10;71.80
31677;DHT22;18385;51.572;6.578;2023-02-20T08:11:35;11.10;71.80
31677;DHT22;18385;51.572;6.578;2023-02-20T08:14:02;11.10;71.90
31677;DHT22;18385;51.572;6.578;2023-02-20T08:16:28;11.20;72.00
31677;DHT22;18385;51.572;6.578;2023-02-20T08:18:54;11.20;71.80
31677;DHT22;18385;51.572;6.578;2023-02-20T08:21:20;11.20;71.50
31677;DHT22;18385;51.572;6.578;2023-02-20T08:23:46;11.20;71.60
31677;DHT22;18385;51.572;6.578;2023-02-20T08:26:12;11.20;71.70
31677;DHT22;18385;51.572;6.578;2023-02-20T08:28:38;11.30;71.70
31677;DHT22;18385;51.572;6.578;2023-02-20T08:31:04;11.30;71.70
31677;DHT22;18385;51.572;6.578;2023-02-20T08:33:29;11.40;71.70
31677;DHT22;18385;51.572;6.578;2023-02-20T08:35:55;11.40;71.50
31677;DHT22;18385;51.572;6.578;2023-02-20T08:38:33;11.40;71.50
31677;DHT22;18385;51.572;6.578;2023-02-20T08:41:05;11.40;71.40
31677;DHT22;18385;51.572;6.578;2023-02-20T08:43:33;11.40;71.50
31677;DHT22;18385;51.572;6.578;2023-02-20T08:45:59;11.40;71.50
31677;DHT22;18385;51.572;6.578;2023-02-20T08:48:25;11.50;71.50
31677;DHT22;18385;51.572;6.578;2023-02-20T08:50:51;11.50;71.30
31677;DHT22;18385;51.572;6.578;2023-02-20T08:53:17;11.50;71.20
31677;DHT22;18385;51.572;6.578;2023-02-20T08:55:42;11.50;71.30
31677;DHT22;18385;51.572;6.578;2023-02-20T08:58:08;11.60;71.30
31677;DHT22;18385;51.572;6.578;2023-02-20T09:00:34;11.60;71.10
31677;DHT22;18385;51.572;6.578;2023-02-20T09:03:00;11.60;71.10
31677;DHT22;18385;51.572;6.578;2023-02-20T09:05:26;11.70;71.10
31677;DHT22;18385;51.572;6.578;2023-02-20T09:07:52;11.70;71.00
31677;DHT22;18385;51.572;6.578;2023-02-20T09:10:21;11.80;71.10
31677;DHT22;18385;51.572;6.578;2023-02-20T09:12:47;11.80;71.00
31677;DHT22;18385;51.572;6.578;2023-02-20T09:15:13;11.90;70.90
31677;DHT22;18385;51.572;6.578;2023-02-20T09:17:52;11.90;70.70
31677;DHT22;18385;51.572;6.578;2023-02-20T09:20:19;11.90;70.70
31677;DHT22;18385;51.572;6.578;2023-02-20T09:22:46;11.90;70.70
31677;DHT22;18385;51.572;6.578;2023-02-20T09:25:12;11.90;70.50
31677;DHT22;18385;51.572;6.578;2023-02-20T09:27:38;11.90;70.20
31677;DHT22;18385;51.572;6.578;2023-02-20T09:30:05;11.80;70.50
31677;DHT22;18385;51.572;6.578;2023-02-20T09:32:31;11.70;70.50
31677;DHT22;18385;51.572;6.578;2023-02-20T09:34:57;11.70;70.60
31677;DHT22;18385;51.572;6.578;2023-02-20T09:37:23;11.70;70.50
31677;DHT22;18385;51.572;6.578;2023-02-20T09:39:49;11.70;70.60
31677;DHT22;18385;51.572;6.578;2023-02-20T09:48:03;11.90;70.50
31677;DHT22;18385;51.572;6.578;2023-02-20T09:56:03;12.10;70.20
31677;DHT22;18385;51.572;6.578;2023-02-20T09:58:59;12.10;70.10
31677;DHT22;18385;51.572;6.578;2023-02-20T10:01:27;12.10;70.10
31677;DHT22;18385;51.572;6.578;2023-02-20T10:03:57;12.10;70.00
31677;DHT22;18385;51.572;6.578;2023-02-20T10:06:26;12.20;70.10
31677;DHT22;18385;51.572;6.578;2023-02-20T10:08:54;12.30;69.90
31677;DHT22;18385;51.572;6.578;2023-02-20T10:14:32;12.40;69.70
31677;DHT22;18385;51.572;6.578;2023-02-20T10:17:22;12.50;69.70
31677;DHT22;18385;51.572;6.578;2023-02-20T10:20:11;12.50;69.40
31677;DHT22;18385;51.572;6.578;2023-02-20T10:22:57;12.50;69.50
31677;DHT22;18385;51.572;6.578;2023-02-20T10:28:16;12.50;69.50
31677;DHT22;18385;51.572;6.578;2023-02-20T10:30:58;12.60;69.50
31677;DHT22;18385;51.572;6.578;2023-02-20T10:33:43;12.60;69.30
31677;DHT22;18385;51.572;6.578;2023-02-20T10:36:24;12.60;69.20
31677;DHT22;18385;51.572;6.578;2023-02-20T10:38:57;12.70;69.40
31677;DHT22;18385;51.572;6.578;2023-02-20T10:44:04;12.90;69.30
31677;DHT22;18385;51.572;6.578;2023-02-20T10:49:13;12.90;68.60
31677;DHT22;18385;51.572;6.578;2023-02-20T10:51:47;12.90;68.60
31677;DHT22;18385;51.572;6.578;2023-02-20T10:54:18;12.90;68.80
31677;DHT22;18385;51.572;6.578;2023-02-20T10:56:58;12.90;68.60
31677;DHT22;18385;51.572;6.578;2023-02-20T10:59:36;12.90;68.50
31677;DHT22;18385;51.572;6.578;2023-02-20T11:02:14;12.90;68.30
31677;DHT22;18385;51.572;6.578;2023-02-20T11:04:41;12.80;68.40
31677;DHT22;18385;51.572;6.578;2023-02-20T11:07:15;12.90;68.50
31677;DHT22;18385;51.572;6.578;2023-02-20T11:09:42;12.90;68.40
31677;DHT22;18385;51.572;6.578;2023-02-20T11:12:23;13.00;68.40
31677;DHT22;18385;51.572;6.578;2023-02-20T11:14:51;13.00;68.20
31677;DHT22;18385;51.572;6.578;2023-02-20T11:17:23;13.00;68.20
31677;DHT22;18385;51.572;6.578;2023-02-20T11:19:58;12.90;68.10
31677;DHT22;18385;51.572;6.578;2023-02-20T11:22:42;12.90;68.00
31677;DHT22;18385;51.572;6.578;2023-02-20T11:25:25;12.90;68.30
31677;DHT22;18385;51.572;6.578;2023-02-20T11:27:54;12.90;68.30
31677;DHT22;18385;51.572;6.578;2023-02-20T11:32:49;12.90;68.40
31677;DHT22;18385;51.572;6.578;2023-02-20T11:35:26;12.90;68.20
31677;DHT22;18385;51.572;6.578;2023-02-20T11:40:39;12.80;68.30
31677;DHT22;18385;51.572;6.578;2023-02-20T11:43:20;12.80;68.10
31677;DHT22;18385;51.572;6.578;2023-02-20T11:45:46;12.70;68.20
31677;DHT22;18385;51.572;6.578;2023-02-20T11:48:17;12.70;68.20
31677;DHT22;18385;51.572;6.578;2023-02-20T11:50:48;12.70;68.30
31677;DHT22;18385;51.572;6.578;2023-02-20T11:53:26;12.60;68.20
31677;DHT22;18385;51.572;6.578;2023-02-20T11:56:14;12.60;68.20
31677;DHT22;18385;51.572;6.578;2023-02-20T11:58:42;12.60;68.30
31677;DHT22;18385;51.572;6.578;2023-02-20T12:03:57;12.60;68.50
31677;DHT22;18385;51.572;6.578;2023-02-20T12:06:40;12.70;68.40
31677;DHT22;18385;51.572;6.578;2023-02-20T12:09:10;12.60;68.20
31677;DHT22;18385;51.572;6.578;2023-02-20T12:11:38;12.60;68.20
31677;DHT22;18385;51.572;6.578;2023-02-20T12:14:08;12.50;68.30
31677;DHT22;18385;51.572;6.578;2023-02-20T12:16:49;12.60;68.40
31677;DHT22;18385;51.572;6.578;2023-02-20T12:25:21;12.60;68.30
31677;DHT22;18385;51.572;6.578;2023-02-20T12:28:22;12.60;68.40
31677;DHT22;18385;51.572;6.578;2023-02-20T12:36:37;12.70;69.00
31677;DHT22;18385;51.572;6.578;2023-02-20T12:44:55;12.70;68.20
31677;DHT22;18385;51.572;6.578;2023-02-20T12:47:32;12.70;68.20
31677;DHT22;18385;51.572;6.578;2023-02-20T12:50:33;12.70;68.20
31677;DHT22;18385;51.572;6.578;2023-02-20T13:01:26;12.80;68.30
31677;DHT22;18385;51.572;6.578;2023-02-20T13:04:34;12.80;68.30
31677;DHT22;18385;51.572;6.578;2023-02-20T13:07:21;12.90;68.20
31677;DHT22;18385;51.572;6.578;2023-02-20T13:10:16;12.90;68.20
31677;DHT22;18385;51.572;6.578;2023-02-20T13:12:44;12.90;68.20
31677;DHT22;18385;51.572;6.578;2023-02-20T13:17:57;12.90;68.00
31677;DHT22;18385;51.572;6.578;2023-02-20T13:20:26;12.80;68.10
31677;DHT22;18385;51.572;6.578;2023-02-20T13:25:38;12.70;68.00
31677;DHT22;18385;51.572;6.578;2023-02-20T13:28:33;12.70;68.90
31677;DHT22;18385;51.572;6.578;2023-02-20T13:31:08;12.60;68.20
31677;DHT22;18385;51.572;6.578;2023-02-20T13:33:35;12.60;68.30
31677;DHT22;18385;51.572;6.578;2023-02-20T13:39:49;12.60;68.40
31677;DHT22;18385;51.572;6.578;2023-02-20T13:42:28;12.60;68.50
31677;DHT22;18385;51.572;6.578;2023-02-20T13:44:54;12.60;68.60
31677;DHT22;18385;51.572;6.578;2023-02-20T13:47:31;12.60;68.50
31677;DHT22;18385;51.572;6.578;2023-02-20T13:49:58;12.60;68.50
31677;DHT22;18385;51.572;6.578;2023-02-20T13:52:42;12.70;68.50
31677;DHT22;18385;51.572;6.578;2023-02-20T14:00:50;12.70;68.40
31677;DHT22;18385;51.572;6.578;2023-02-20T14:03:35;12.70;68.50
31677;DHT22;18385;51.572;6.578;2023-02-20T14:08:37;12.70;68.50
31677;DHT22;18385;51.572;6.578;2023-02-20T14:11:34;12.70;68.50
31677;DHT22;18385;51.572;6.578;2023-02-20T14:14:08;12.70;68.70
31677;DHT22;18385;51.572;6.578;2023-02-20T14:16:40;12.70;68.60
31677;DHT22;18385;51.572;6.578;2023-02-20T14:19:25;12.70;68.50
31677;DHT22;18385;51.572;6.578;2023-02-20T14:21:52;12.70;68.50
31677;DHT22;18385;51.572;6.578;2023-02-20T14:24:22;12.60;68.50
31677;DHT22;18385;51.572;6.578;2023-02-20T14:26:49;12.70;68.60
31677;DHT22;18385;51.572;6.578;2023-02-20T14:29:29;12.70;68.60
31677;DHT22;18385;51.572;6.578;2023-02-20T14:31:57;12.70;68.50
31677;DHT22;18385;51.572;6.578;2023-02-20T14:34:47;12.70;68.50
31677;DHT22;18385;51.572;6.578;2023-02-20T14:42:25;12.70;68.70
31677;DHT22;18385;51.572;6.578;2023-02-20T14:45:00;12.70;68.60
31677;DHT22;18385;51.572;6.578;2023-02-20T14:47:27;12.70;68.60
31677;DHT22;18385;51.572;6.578;2023-02-20T14:49:52;12.80;68.80
31677;DHT22;18385;51.572;6.578;2023-02-20T14:52:23;12.80;68.50
31677;DHT22;18385;51.572;6.578;2023-02-20T14:55:04;12.90;68.50
31677;DHT22;18385;51.572;6.578;2023-02-20T14:57:31;12.90;68.50
31677;DHT22;18385;51.572;6.578;2023-02-20T15:02:47;12.90;68.30
31677;DHT22;18385;51.572;6.578;2023-02-20T15:05:25;12.90;68.40
31677;DHT22;18385;51.572;6.578;2023-02-20T15:07:51;12.90;68.50
31677;DHT22;18385;51.572;6.578;2023-02-20T15:10:36;12.90;68.40
31677;DHT22;18385;51.572;6.578;2023-02-20T15:13:10;12.90;68.40
31677;DHT22;18385;51.572;6.578;2023-02-20T15:15:42;12.80;68.60
31677;DHT22;18385;51.572;6.578;2023-02-20T15:18:30;12.80;68.50
31677;DHT22;18385;51.572;6.578;2023-02-20T15:20:56;12.80;68.60
31677;DHT22;18385;51.572;6.578;2023-02-20T15:23:27;12.80;68.50
31677;DHT22;18385;51.572;6.578;2023-02-20T15:25:53;12.90;68.50
31677;DHT22;18385;51.572;6.578;2023-02-20T15:33:40;12.80;68.60
31677;DHT22;18385;51.572;6.578;2023-02-20T15:36:12;12.80;68.50
31677;DHT22;18385;51.572;6.578;2023-02-20T15:38:38;12.80;68.50
31677;DHT22;18385;51.572;6.578;2023-02-20T15:41:05;12.80;68.50
31677;DHT22;18385;51.572;6.578;2023-02-20T15:43:31;12.80;68.50
31677;DHT22;18385;51.572;6.578;2023-02-20T15:45:56;12.80;68.50
31677;DHT22;18385;51.572;6.578;2023-02-20T15:48:22;12.90;68.50
31677;DHT22;18385;51.572;6.578;2023-02-20T15:50:48;12.90;68.60
31677;DHT22;18385;51.572;6.578;2023-02-20T15:53:20;12.90;68.50
31677;DHT22;18385;51.572;6.578;2023-02-20T15:55:49;12.90;68.50
31677;DHT22;18385;51.572;6.578;2023-02-20T16:00:49;12.80;68.50
31677;DHT22;18385;51.572;6.578;2023-02-20T16:03:16;12.80;68.60
31677;DHT22;18385;51.572;6.578;2023-02-20T16:05:42;12.80;68.90
31677;DHT22;18385;51.572;6.578;2023-02-20T16:08:07;12.70;68.50
31677;DHT22;18385;51.572;6.578;2023-02-20T16:10:33;12.80;68.70
31677;DHT22;18385;51.572;6.578;2023-02-20T16:13:00;12.80;68.60
31677;DHT22;18385;51.572;6.578;2023-02-20T16:15:26;12.80;68.60
31677;DHT22;18385;51.572;6.578;2023-02-20T16:17:53;12.80;68.60
31677;DHT22;18385;51.572;6.578;2023-02-20T16:20:24;12.80;68.50
31677;DHT22;18385;51.572;6.578;2023-02-20T16:22:50;12.80;68.60
31677;DHT22;18385;51.572;6.578;2023-02-20T16:25:19;12.80;68.50
31677;DHT22;18385;51.572;6.578;2023-02-20T16:27:46;12.80;68.50
31677;DHT22;18385;51.572;6.578;2023-02-20T16:30:25;12.80;68.50
31677;DHT22;18385;51.572;6.578;2023-02-20T16:32:51;12.80;68.50
31677;DHT22;18385;51.572;6.578;2023-02-20T16:35:18;12.80;68.50
31677;DHT22;18385;51.572;6.578;2023-02-20T16:37:44;12.80;68.50
31677;DHT22;18385;51.572;6.578;2023-02-20T16:40:12;12.80;68.50
31677;DHT22;18385;51.572;6.578;2023-02-20T16:42:39;12.80;68.50
31677;DHT22;18385;51.572;6.578;2023-02-20T16:45:12;12.80;68.50
31677;DHT22;18385;51.572;6.578;2023-02-20T16:47:38;12.80;68.50
31677;DHT22;18385;51.572;6.578;2023-02-20T16:50:05;12.80;68.50
31677;DHT22;18385;51.572;6.578;2023-02-20T16:52:39;12.70;68.50
31677;DHT22;18385;51.572;6.578;2023-02-20T16:55:29;12.70;69.40
31677;DHT22;18385;51.572;6.578;2023-02-20T16:57:53;12.70;68.60
31677;DHT22;18385;51.572;6.578;2023-02-20T17:00:22;12.70;68.60
31677;DHT22;18385;51.572;6.578;2023-02-20T17:02:50;12.70;68.60
31677;DHT22;18385;51.572;6.578;2023-02-20T17:05:18;12.70;68.60
31677;DHT22;18385;51.572;6.578;2023-02-20T17:07:44;12.70;68.60
31677;DHT22;18385;51.572;6.578;2023-02-20T17:10:10;12.70;68.60
31677;DHT22;18385;51.572;6.578;2023-02-20T17:12:35;12.70;68.60
31677;DHT22;18385;51.572;6.578;2023-02-20T17:15:02;12.70;68.50
31677;DHT22;18385;51.572;6.578;2023-02-20T17:17:29;12.70;68.60
31677;DHT22;18385;51.572;6.578;2023-02-20T17:19:58;12.70;68.60
31677;DHT22;18385;51.572;6.578;2023-02-20T17:22:25;12.80;68.70
31677;DHT22;18385;51.572;6.578;2023-02-20T17:24:51;12.70;68.60
31677;DHT22;18385;51.572;6.578;2023-02-20T17:27:18;12.80;68.60
31677;DHT22;18385;51.572;6.578;2023-02-20T17:29:44;12.70;68.50
31677;DHT22;18385;51.572;6.578;2023-02-20T17:32:11;12.70;68.50
31677;DHT22;18385;51.572;6.578;2023-02-20T17:34:37;12.80;68.60
31677;DHT22;18385;51.572;6.578;2023-02-20T17:37:04;12.80;68.60
31677;DHT22;18385;51.572;6.578;2023-02-20T17:39:30;12.70;68.60
31677;DHT22;18385;51.572;6.578;2023-02-20T17:41:55;12.70;68.70
31677;DHT22;18385;51.572;6.578;2023-02-20T17:44:24;12.70;68.60
31677;DHT22;18385;51.572;6.578;2023-02-20T17:46:52;12.70;68.60
31677;DHT22;18385;51.572;6.578;2023-02-20T17:49:18;12.70;68.60
31677;DHT22;18385;51.572;6.578;2023-02-20T17:51:45;12.70;68.60
31677;DHT22;18385;51.572;6.578;2023-02-20T17:54:12;12.80;68.70